sensor_id;sensor_type;location;lat;lon;timestamp;pressure;altitude;pressure_sealevel;temperature;humidity
80116;BME280;69423;47.608;19.366;2023-07-31T00:00:05;98663.84;;;17.96;86.97
80116;BME280;69423;47.608;19.366;2023-07-31T00:00:36;98666.06;;;17.99;87.23
80116;BME280;69423;47.608;19.366;2023-07-31T00:01:08;98668.75;;;17.99;86.62
80116;BME280;69423;47.608;19.366;2023-07-31T00:01:39;98658.91;;;17.93;86.89
80116;BME280;69423;47.608;19.366;2023-07-31T00:02:10;98664.56;;;17.92;87.21
80116;BME280;69423;47.608;19.366;2023-07-31T00:02:41;98660.56;;;17.94;87.21
80116;BME280;69423;47.608;19.366;2023-07-31T00:03:12;98654.69;;;17.97;87.49
80116;BME280;69423;47.608;19.366;2023-07-31T00:03:43;98665.25;;;17.99;87.07
80116;BME280;69423;47.608;19.366;2023-07-31T00:04:14;98662.91;;;18.03;86.58
80116;BME280;69423;47.608;19.366;2023-07-31T00:04:45;98659.41;;;18.02;86.53
80116;BME280;69423;47.608;19.366;2023-07-31T00:05:16;98660.22;;;18.03;86.86
80116;BME280;69423;47.608;19.366;2023-07-31T00:05:48;98670.41;;;18.00;86.22
80116;BME280;69423;47.608;19.366;2023-07-31T00:06:19;98669.25;;;17.96;86.63
80116;BME280;69423;47.608;19.366;2023-07-31T00:06:50;98663.28;;;17.94;86.83
80116;BME280;69423;47.608;19.366;2023-07-31T00:07:21;98661.63;;;17.93;86.34
80116;BME280;69423;47.608;19.366;2023-07-31T00:07:52;98661.88;;;17.92;86.88
80116;BME280;69423;47.608;19.366;2023-07-31T00:08:24;98661.03;;;17.91;86.88
80116;BME280;69423;47.608;19.366;2023-07-31T00:08:55;98660.56;;;17.94;86.33
80116;BME280;69423;47.608;19.366;2023-07-31T00:09:27;98664.00;;;17.90;86.26
80116;BME280;69423;47.608;19.366;2023-07-31T00:09:58;98664.81;;;17.90;86.62
80116;BME280;69423;47.608;19.366;2023-07-31T00:10:29;98660.81;;;17.93;86.23
80116;BME280;69423;47.608;19.366;2023-07-31T00:11:00;98662.69;;;17.92;86.30
80116;BME280;69423;47.608;19.366;2023-07-31T00:11:31;98661.03;;;17.91;86.52
80116;BME280;69423;47.608;19.366;2023-07-31T00:12:02;98661.03;;;17.91;86.86
80116;BME280;69423;47.608;19.366;2023-07-31T00:12:33;98657.28;;;17.92;86.19
80116;BME280;69423;47.608;19.366;2023-07-31T00:13:04;98667.84;;;17.94;86.58
80116;BME280;69423;47.608;19.366;2023-07-31T00:13:35;98668.09;;;17.92;85.87
80116;BME280;69423;47.608;19.366;2023-07-31T00:14:06;98665.38;;;17.92;86.05
80116;BME280;69423;47.608;19.366;2023-07-31T00:14:37;98665.38;;;17.92;86.43
80116;BME280;69423;47.608;19.366;2023-07-31T00:15:09;98663.72;;;17.91;85.79
80116;BME280;69423;47.608;19.366;2023-07-31T00:15:40;98670.78;;;17.92;86.09
80116;BME280;69423;47.608;19.366;2023-07-31T00:16:11;98662.91;;;17.91;85.66
80116;BME280;69423;47.608;19.366;2023-07-31T00:16:42;98672.91;;;17.90;86.58
80116;BME280;69423;47.608;19.366;2023-07-31T00:17:13;98667.28;;;17.92;86.40
80116;BME280;69423;47.608;19.366;2023-07-31T00:17:44;98662.56;;;17.87;86.32
80116;BME280;69423;47.608;19.366;2023-07-31T00:18:15;98676.91;;;17.88;86.50
80116;BME280;69423;47.608;19.366;2023-07-31T00:18:46;98669.38;;;17.90;86.08
80116;BME280;69423;47.608;19.366;2023-07-31T00:19:17;98674.19;;;17.88;86.33
80116;BME280;69423;47.608;19.366;2023-07-31T00:19:48;98675.25;;;17.87;86.24
80116;BME280;69423;47.608;19.366;2023-07-31T00:20:21;98672.31;;;17.88;85.86
80116;BME280;69423;47.608;19.366;2023-07-31T00:20:52;98672.31;;;17.88;86.51
80116;BME280;69423;47.608;19.366;2023-07-31T00:21:23;98671.81;;;17.91;86.32
80116;BME280;69423;47.608;19.366;2023-07-31T00:21:54;98668.91;;;17.93;85.83
80116;BME280;69423;47.608;19.366;2023-07-31T00:22:25;98665.97;;;17.94;85.92
80116;BME280;69423;47.608;19.366;2023-07-31T00:22:56;98674.66;;;17.96;85.70
80116;BME280;69423;47.608;19.366;2023-07-31T00:23:27;98674.16;;;17.99;86.04
80116;BME280;69423;47.608;19.366;2023-07-31T00:23:58;98673.34;;;17.99;85.95
80116;BME280;69423;47.608;19.366;2023-07-31T00:24:29;98674.16;;;17.99;85.61
80116;BME280;69423;47.608;19.366;2023-07-31T00:25:00;98674.66;;;17.96;85.36
80116;BME280;69423;47.608;19.366;2023-07-31T00:25:31;98672.31;;;18.00;85.47
80116;BME280;69423;47.608;19.366;2023-07-31T00:26:02;98674.75;;;18.02;85.62
80116;BME280;69423;47.608;19.366;2023-07-31T00:26:33;98661.25;;;18.02;85.08
80116;BME280;69423;47.608;19.366;2023-07-31T00:27:05;98669.94;;;18.04;85.15
80116;BME280;69423;47.608;19.366;2023-07-31T00:27:36;98665.03;;;18.00;85.61
80116;BME280;69423;47.608;19.366;2023-07-31T00:28:07;98672.03;;;18.02;85.62
80116;BME280;69423;47.608;19.366;2023-07-31T00:28:38;98666.66;;;18.02;85.38
80116;BME280;69423;47.608;19.366;2023-07-31T00:29:09;98664.78;;;18.02;85.79
80116;BME280;69423;47.608;19.366;2023-07-31T00:29:40;98667.22;;;18.04;85.14
80116;BME280;69423;47.608;19.366;2023-07-31T00:30:11;98668.31;;;18.03;85.20
80116;BME280;69423;47.608;19.366;2023-07-31T00:30:42;98664.06;;;18.07;85.26
80116;BME280;69423;47.608;19.366;2023-07-31T00:31:13;98660.06;;;18.09;85.38
80116;BME280;69423;47.608;19.366;2023-07-31T00:31:44;98658.19;;;18.10;85.95
80116;BME280;69423;47.608;19.366;2023-07-31T00:32:15;98666.50;;;18.08;85.66
80116;BME280;69423;47.608;19.366;2023-07-31T00:32:46;98656.56;;;18.09;85.46
80116;BME280;69423;47.608;19.366;2023-07-31T00:33:17;98665.13;;;18.06;85.41
80116;BME280;69423;47.608;19.366;2023-07-31T00:33:49;98658.81;;;18.00;86.01
80116;BME280;69423;47.608;19.366;2023-07-31T00:34:20;98656.34;;;17.98;85.64
80116;BME280;69423;47.608;19.366;2023-07-31T00:34:51;98656.13;;;18.00;85.95
80116;BME280;69423;47.608;19.366;2023-07-31T00:35:22;98671.00;;;18.03;85.88
80116;BME280;69423;47.608;19.366;2023-07-31T00:35:53;98663.72;;;18.03;85.94
80116;BME280;69423;47.608;19.366;2023-07-31T00:36:24;98661.25;;;18.02;86.08
80116;BME280;69423;47.608;19.366;2023-07-31T00:36:55;98661.25;;;18.02;85.42
80116;BME280;69423;47.608;19.366;2023-07-31T00:37:26;98662.41;;;18.06;86.01
80116;BME280;69423;47.608;19.366;2023-07-31T00:37:58;98664.66;;;18.09;85.21
80116;BME280;69423;47.608;19.366;2023-07-31T00:38:29;98659.00;;;18.10;85.88
80116;BME280;69423;47.608;19.366;2023-07-31T00:39:00;98663.00;;;18.08;85.72
80116;BME280;69423;47.608;19.366;2023-07-31T00:39:31;98664.06;;;18.07;85.75
80116;BME280;69423;47.608;19.366;2023-07-31T00:40:02;98657.00;;;18.06;85.64
80116;BME280;69423;47.608;19.366;2023-07-31T00:40:35;98670.28;;;18.07;85.51
80116;BME280;69423;47.608;19.366;2023-07-31T00:41:07;98655.41;;;18.05;85.45
80116;BME280;69423;47.608;19.366;2023-07-31T00:41:38;98659.97;;;18.04;85.48
80116;BME280;69423;47.608;19.366;2023-07-31T00:42:09;98659.13;;;18.04;85.45
80116;BME280;69423;47.608;19.366;2023-07-31T00:42:40;98663.94;;;18.02;85.62
80116;BME280;69423;47.608;19.366;2023-07-31T00:43:11;98659.84;;;17.99;85.58
80116;BME280;69423;47.608;19.366;2023-07-31T00:43:42;98666.41;;;18.03;85.86
80116;BME280;69423;47.608;19.366;2023-07-31T00:44:13;98667.81;;;18.06;85.29
80116;BME280;69423;47.608;19.366;2023-07-31T00:44:44;98665.69;;;18.08;85.59
80116;BME280;69423;47.608;19.366;2023-07-31T00:45:16;98661.94;;;18.09;85.09
80116;BME280;69423;47.608;19.366;2023-07-31T00:45:47;98650.09;;;18.10;85.68
80116;BME280;69423;47.608;19.366;2023-07-31T00:46:18;98655.47;;;18.10;85.48
80116;BME280;69423;47.608;19.366;2023-07-31T00:46:49;98649.03;;;18.11;85.53
80116;BME280;69423;47.608;19.366;2023-07-31T00:47:20;98657.94;;;18.11;85.31
80116;BME280;69423;47.608;19.366;2023-07-31T00:47:51;98651.75;;;18.11;85.50
80116;BME280;69423;47.608;19.366;2023-07-31T00:48:22;98648.47;;;18.09;85.67
80116;BME280;69423;47.608;19.366;2023-07-31T00:48:54;98654.91;;;18.08;85.42
80116;BME280;69423;47.608;19.366;2023-07-31T00:49:26;98651.03;;;18.04;85.44
80116;BME280;69423;47.608;19.366;2023-07-31T00:49:57;98646.81;;;18.08;85.92
80116;BME280;69423;47.608;19.366;2023-07-31T00:50:29;98651.38;;;18.07;85.44
80116;BME280;69423;47.608;19.366;2023-07-31T00:51:00;98658.69;;;18.07;85.33
80116;BME280;69423;47.608;19.366;2023-07-31T00:51:31;98651.63;;;18.06;85.55
80116;BME280;69423;47.608;19.366;2023-07-31T00:52:03;98650.47;;;18.02;85.75
80116;BME280;69423;47.608;19.366;2023-07-31T00:52:35;98648.34;;;18.04;85.96
80116;BME280;69423;47.608;19.366;2023-07-31T00:53:06;98648.34;;;18.04;85.49
80116;BME280;69423;47.608;19.366;2023-07-31T00:53:38;98645.91;;;18.02;86.26
80116;BME280;69423;47.608;19.366;2023-07-31T00:54:09;98652.13;;;18.03;85.88
80116;BME280;69423;47.608;19.366;2023-07-31T00:54:42;98657.16;;;17.99;86.20
80116;BME280;69423;47.608;19.366;2023-07-31T00:55:13;98652.56;;;17.99;86.36
80116;BME280;69423;47.608;19.366;2023-07-31T00:55:45;98652.56;;;17.99;86.08
80116;BME280;69423;47.608;19.366;2023-07-31T00:56:17;98655.28;;;17.99;86.45
80116;BME280;69423;47.608;19.366;2023-07-31T00:56:50;98648.03;;;18.00;86.06
80116;BME280;69423;47.608;19.366;2023-07-31T00:57:23;98645.91;;;18.02;85.83
80116;BME280;69423;47.608;19.366;2023-07-31T00:57:55;98656.94;;;18.00;86.34
80116;BME280;69423;47.608;19.366;2023-07-31T00:58:27;98644.47;;;17.99;86.37
80116;BME280;69423;47.608;19.366;2023-07-31T00:58:58;98649.06;;;17.99;85.83
80116;BME280;69423;47.608;19.366;2023-07-31T00:59:29;98644.75;;;17.98;86.24
80116;BME280;69423;47.608;19.366;2023-07-31T01:00:00;98650.38;;;17.96;86.30
80116;BME280;69423;47.608;19.366;2023-07-31T01:00:31;98649.28;;;17.97;86.46
80116;BME280;69423;47.608;19.366;2023-07-31T01:01:02;98654.94;;;17.96;86.16
80116;BME280;69423;47.608;19.366;2023-07-31T01:01:33;98648.47;;;17.97;86.48
80116;BME280;69423;47.608;19.366;2023-07-31T01:02:04;98649.78;;;17.94;86.98
80116;BME280;69423;47.608;19.366;2023-07-31T01:02:36;98652.47;;;17.94;86.76
80116;BME280;69423;47.608;19.366;2023-07-31T01:03:08;98647.09;;;17.94;86.67
80116;BME280;69423;47.608;19.366;2023-07-31T01:03:39;98651.41;;;17.95;86.36
80116;BME280;69423;47.608;19.366;2023-07-31T01:04:11;98659.28;;;17.97;86.40
80116;BME280;69423;47.608;19.366;2023-07-31T01:04:44;98650.94;;;17.98;86.69
80116;BME280;69423;47.608;19.366;2023-07-31T01:05:15;98656.34;;;17.98;86.46
80116;BME280;69423;47.608;19.366;2023-07-31T01:08:21;98653.88;;;17.97;86.49
80116;BME280;69423;47.608;19.366;2023-07-31T01:08:59;98662.78;;;17.97;86.53
80116;BME280;69423;47.608;19.366;2023-07-31T01:10:16;98655.66;;;17.91;86.40
80116;BME280;69423;47.608;19.366;2023-07-31T01:10:56;98658.91;;;17.93;86.54
80116;BME280;69423;47.608;19.366;2023-07-31T01:11:33;98661.38;;;17.95;86.56
80116;BME280;69423;47.608;19.366;2023-07-31T01:12:07;98659.75;;;17.94;86.47
80116;BME280;69423;47.608;19.366;2023-07-31T01:12:38;98663.16;;;17.89;86.94
80116;BME280;69423;47.608;19.366;2023-07-31T01:13:10;98660.44;;;17.89;86.69
80116;BME280;69423;47.608;19.366;2023-07-31T01:13:43;98661.03;;;17.91;87.04
80116;BME280;69423;47.608;19.366;2023-07-31T01:14:14;98657.28;;;17.92;87.24
80116;BME280;69423;47.608;19.366;2023-07-31T01:15:12;98659.41;;;17.90;86.99
80116;BME280;69423;47.608;19.366;2023-07-31T01:15:44;98661.53;;;17.88;86.72
80116;BME280;69423;47.608;19.366;2023-07-31T01:16:15;98664.69;;;17.85;86.86
80116;BME280;69423;47.608;19.366;2023-07-31T01:16:46;98661.75;;;17.87;86.67
80116;BME280;69423;47.608;19.366;2023-07-31T01:17:17;98665.25;;;17.87;87.33
80116;BME280;69423;47.608;19.366;2023-07-31T01:17:48;98659.63;;;17.89;86.99
80116;BME280;69423;47.608;19.366;2023-07-31T01:18:19;98664.69;;;17.85;87.27
80116;BME280;69423;47.608;19.366;2023-07-31T01:18:50;98661.19;;;17.85;87.50
80116;BME280;69423;47.608;19.366;2023-07-31T01:19:24;98660.78;;;17.81;86.98
80116;BME280;69423;47.608;19.366;2023-07-31T01:20:01;98661.84;;;17.80;87.40
80116;BME280;69423;47.608;19.366;2023-07-31T01:20:36;98669.59;;;17.76;87.55
80116;BME280;69423;47.608;19.366;2023-07-31T01:22:49;98656.34;;;17.75;87.73
80116;BME280;69423;47.608;19.366;2023-07-31T01:24:28;98661.06;;;17.68;87.52
80116;BME280;69423;47.608;19.366;2023-07-31T01:25:27;98656.25;;;17.70;87.36
80116;BME280;69423;47.608;19.366;2023-07-31T01:26:12;98656.47;;;17.68;87.52
80116;BME280;69423;47.608;19.366;2023-07-31T01:26:59;98647.00;;;17.66;87.91
80116;BME280;69423;47.608;19.366;2023-07-31T01:27:34;98654.25;;;17.65;87.78
80116;BME280;69423;47.608;19.366;2023-07-31T01:30:03;98649.00;;;17.58;87.14
80116;BME280;69423;47.608;19.366;2023-07-31T01:30:44;98655.91;;;17.54;87.42
80116;BME280;69423;47.608;19.366;2023-07-31T01:31:23;98655.34;;;17.52;87.81
80116;BME280;69423;47.608;19.366;2023-07-31T01:31:55;98655.34;;;17.52;88.01
80116;BME280;69423;47.608;19.366;2023-07-31T01:32:28;98655.34;;;17.52;87.97
80116;BME280;69423;47.608;19.366;2023-07-31T01:33:01;98650.97;;;17.51;87.84
80116;BME280;69423;47.608;19.366;2023-07-31T01:33:37;98647.25;;;17.52;87.47
80116;BME280;69423;47.608;19.366;2023-07-31T01:34:10;98653.31;;;17.48;88.19
80116;BME280;69423;47.608;19.366;2023-07-31T01:34:42;98655.69;;;17.44;87.95
80116;BME280;69423;47.608;19.366;2023-07-31T01:35:15;98648.66;;;17.43;88.28
80116;BME280;69423;47.608;19.366;2023-07-31T01:35:48;98650.31;;;17.44;87.69
80116;BME280;69423;47.608;19.366;2023-07-31T01:36:20;98646.53;;;17.45;87.86
80116;BME280;69423;47.608;19.366;2023-07-31T01:36:52;98648.06;;;17.41;87.80
80116;BME280;69423;47.608;19.366;2023-07-31T01:37:28;98647.03;;;17.42;87.76
80116;BME280;69423;47.608;19.366;2023-07-31T01:38:00;98649.13;;;17.40;87.73
80116;BME280;69423;47.608;19.366;2023-07-31T01:38:31;98651.69;;;17.35;88.28
80116;BME280;69423;47.608;19.366;2023-07-31T01:39:02;98650.06;;;17.34;88.37
80116;BME280;69423;47.608;19.366;2023-07-31T01:39:34;98650.88;;;17.34;88.49
80116;BME280;69423;47.608;19.366;2023-07-31T01:40:06;98654.38;;;17.35;88.78
80116;BME280;69423;47.608;19.366;2023-07-31T01:40:40;98632.72;;;17.30;88.66
80116;BME280;69423;47.608;19.366;2023-07-31T01:41:12;98649.94;;;17.29;88.47
80116;BME280;69423;47.608;19.366;2023-07-31T01:41:44;98651.59;;;17.30;89.21
80116;BME280;69423;47.608;19.366;2023-07-31T01:42:15;98649.69;;;17.30;89.33
80116;BME280;69423;47.608;19.366;2023-07-31T01:42:46;98651.22;;;17.26;89.23
80116;BME280;69423;47.608;19.366;2023-07-31T01:43:17;98649.34;;;17.27;89.89
80116;BME280;69423;47.608;19.366;2023-07-31T01:43:48;98653.22;;;17.31;89.65
80116;BME280;69423;47.608;19.366;2023-07-31T01:44:19;98646.66;;;17.27;89.80
80116;BME280;69423;47.608;19.366;2023-07-31T01:44:50;98650.63;;;17.24;89.84
80116;BME280;69423;47.608;19.366;2023-07-31T01:45:21;98653.09;;;17.26;89.69
80116;BME280;69423;47.608;19.366;2023-07-31T01:45:53;98652.28;;;17.25;89.70
80116;BME280;69423;47.608;19.366;2023-07-31T01:46:24;98649.34;;;17.27;89.54
80116;BME280;69423;47.608;19.366;2023-07-31T01:46:55;98647.94;;;17.24;89.20
80116;BME280;69423;47.608;19.366;2023-07-31T01:47:26;98646.53;;;17.22;90.03
80116;BME280;69423;47.608;19.366;2023-07-31T01:47:57;98650.28;;;17.20;90.59
80116;BME280;69423;47.608;19.366;2023-07-31T01:48:28;98645.97;;;17.19;89.97
80116;BME280;69423;47.608;19.366;2023-07-31T01:48:59;98648.66;;;17.19;89.99
80116;BME280;69423;47.608;19.366;2023-07-31T01:49:30;98648.50;;;17.14;90.25
80116;BME280;69423;47.608;19.366;2023-07-31T01:50:01;98643.13;;;17.14;91.12
80116;BME280;69423;47.608;19.366;2023-07-31T01:50:32;98648.50;;;17.14;90.95
80116;BME280;69423;47.608;19.366;2023-07-31T01:51:03;98651.56;;;17.18;90.93
80116;BME280;69423;47.608;19.366;2023-07-31T01:51:34;98654.84;;;17.20;91.05
80116;BME280;69423;47.608;19.366;2023-07-31T01:52:06;98654.50;;;17.16;91.27
80116;BME280;69423;47.608;19.366;2023-07-31T01:52:37;98649.34;;;17.15;90.58
80116;BME280;69423;47.608;19.366;2023-07-31T01:53:08;98645.38;;;17.17;91.34
80116;BME280;69423;47.608;19.366;2023-07-31T01:53:39;98644.06;;;17.20;91.07
80116;BME280;69423;47.608;19.366;2023-07-31T01:54:10;98647.59;;;17.20;90.56
80116;BME280;69423;47.608;19.366;2023-07-31T01:54:41;98651.94;;;17.22;90.44
80116;BME280;69423;47.608;19.366;2023-07-31T01:55:13;98656.84;;;17.25;90.49
80116;BME280;69423;47.608;19.366;2023-07-31T01:55:44;98652.75;;;17.22;91.06
80116;BME280;69423;47.608;19.366;2023-07-31T01:56:15;98659.53;;;17.25;90.39
80116;BME280;69423;47.608;19.366;2023-07-31T01:56:46;98664.91;;;17.25;90.76
80116;BME280;69423;47.608;19.366;2023-07-31T01:57:17;98653.56;;;17.23;90.69
80116;BME280;69423;47.608;19.366;2023-07-31T01:57:48;98663.88;;;17.26;90.83
80116;BME280;69423;47.608;19.366;2023-07-31T01:58:19;98668.09;;;17.22;90.66
80116;BME280;69423;47.608;19.366;2023-07-31T01:58:50;98661.31;;;17.19;91.00
80116;BME280;69423;47.608;19.366;2023-07-31T01:59:21;98662.34;;;17.18;90.88
80116;BME280;69423;47.608;19.366;2023-07-31T01:59:52;98662.72;;;17.22;90.38
80116;BME280;69423;47.608;19.366;2023-07-31T02:00:24;98670.31;;;17.25;90.67
80116;BME280;69423;47.608;19.366;2023-07-31T02:00:55;98667.16;;;17.28;90.19
80116;BME280;69423;47.608;19.366;2023-07-31T02:01:26;98667.16;;;17.28;90.46
80116;BME280;69423;47.608;19.366;2023-07-31T02:01:57;98664.00;;;17.31;90.59
80116;BME280;69423;47.608;19.366;2023-07-31T02:02:28;98662.38;;;17.30;90.21
80116;BME280;69423;47.608;19.366;2023-07-31T02:02:59;98666.69;;;17.31;90.00
80116;BME280;69423;47.608;19.366;2023-07-31T02:03:30;98672.06;;;17.31;90.20
80116;BME280;69423;47.608;19.366;2023-07-31T02:04:02;98674.53;;;17.32;89.99
80116;BME280;69423;47.608;19.366;2023-07-31T02:04:33;98669.16;;;17.32;89.88
80116;BME280;69423;47.608;19.366;2023-07-31T02:05:05;98667.84;;;17.35;90.24
80116;BME280;69423;47.608;19.366;2023-07-31T02:05:36;98682.41;;;17.34;89.65
80116;BME280;69423;47.608;19.366;2023-07-31T02:06:07;98672.00;;;17.37;89.74
80116;BME280;69423;47.608;19.366;2023-07-31T02:06:38;98669.03;;;17.39;89.93
80116;BME280;69423;47.608;19.366;2023-07-31T02:07:10;98671.13;;;17.37;89.85
80116;BME280;69423;47.608;19.366;2023-07-31T02:07:41;98674.19;;;17.40;89.89
80116;BME280;69423;47.608;19.366;2023-07-31T02:08:12;98676.06;;;17.40;89.45
80116;BME280;69423;47.608;19.366;2023-07-31T02:08:43;98668.59;;;17.42;89.60
80116;BME280;69423;47.608;19.366;2023-07-31T02:09:14;98665.28;;;17.40;90.08
80116;BME280;69423;47.608;19.366;2023-07-31T02:09:45;98671.28;;;17.42;90.00
80116;BME280;69423;47.608;19.366;2023-07-31T02:10:17;98670.19;;;17.43;89.79
80116;BME280;69423;47.608;19.366;2023-07-31T02:10:48;98672.69;;;17.45;90.00
80116;BME280;69423;47.608;19.366;2023-07-31T02:11:19;98667.50;;;17.43;89.73
80116;BME280;69423;47.608;19.366;2023-07-31T02:11:50;98662.72;;;17.45;89.40
80116;BME280;69423;47.608;19.366;2023-07-31T02:12:21;98661.31;;;17.43;89.78
80116;BME280;69423;47.608;19.366;2023-07-31T02:12:52;98666.47;;;17.44;90.06
80116;BME280;69423;47.608;19.366;2023-07-31T02:13:23;98661.66;;;17.46;89.57
80116;BME280;69423;47.608;19.366;2023-07-31T02:13:54;98657.31;;;17.45;89.69
80116;BME280;69423;47.608;19.366;2023-07-31T02:14:25;98660.81;;;17.46;89.58
80116;BME280;69423;47.608;19.366;2023-07-31T02:14:56;98657.31;;;17.45;89.50
80116;BME280;69423;47.608;19.366;2023-07-31T02:15:27;98664.00;;;17.43;89.67
80116;BME280;69423;47.608;19.366;2023-07-31T02:15:58;98660.94;;;17.39;89.26
80116;BME280;69423;47.608;19.366;2023-07-31T02:16:29;98654.16;;;17.36;89.37
80116;BME280;69423;47.608;19.366;2023-07-31T02:17:00;98658.72;;;17.36;89.59
80116;BME280;69423;47.608;19.366;2023-07-31T02:17:31;98657.94;;;17.35;90.09
80116;BME280;69423;47.608;19.366;2023-07-31T02:18:03;98653.94;;;17.38;89.66
80116;BME280;69423;47.608;19.366;2023-07-31T02:18:34;98655.56;;;17.39;89.26
80116;BME280;69423;47.608;19.366;2023-07-31T02:19:05;98648.53;;;17.38;89.84
80116;BME280;69423;47.608;19.366;2023-07-31T02:19:36;98649.34;;;17.38;89.32
80116;BME280;69423;47.608;19.366;2023-07-31T02:20:07;98650.16;;;17.39;89.69
80116;BME280;69423;47.608;19.366;2023-07-31T02:20:38;98654.97;;;17.37;89.80
80116;BME280;69423;47.608;19.366;2023-07-31T02:21:09;98657.06;;;17.35;89.96
80116;BME280;69423;47.608;19.366;2023-07-31T02:21:40;98655.44;;;17.34;89.26
80116;BME280;69423;47.608;19.366;2023-07-31T02:22:11;98648.41;;;17.33;89.68
80116;BME280;69423;47.608;19.366;2023-07-31T02:22:42;98651.09;;;17.33;89.86
80116;BME280;69423;47.608;19.366;2023-07-31T02:23:13;98652.16;;;17.32;89.77
80116;BME280;69423;47.608;19.366;2023-07-31T02:23:44;98661.06;;;17.32;90.07
80116;BME280;69423;47.608;19.366;2023-07-31T02:24:15;98652.63;;;17.29;89.34
80116;BME280;69423;47.608;19.366;2023-07-31T02:24:46;98654.72;;;17.27;90.10
80116;BME280;69423;47.608;19.366;2023-07-31T02:25:17;98655.31;;;17.29;89.95
80116;BME280;69423;47.608;19.366;2023-07-31T02:25:48;98665.50;;;17.27;89.97
80116;BME280;69423;47.608;19.366;2023-07-31T02:26:20;98656.63;;;17.26;89.33
80116;BME280;69423;47.608;19.366;2023-07-31T02:26:51;98661.78;;;17.28;89.43
80116;BME280;69423;47.608;19.366;2023-07-31T02:27:22;98660.97;;;17.27;90.25
80116;BME280;69423;47.608;19.366;2023-07-31T02:27:54;98656.38;;;17.28;90.12
80116;BME280;69423;47.608;19.366;2023-07-31T02:28:25;98655.00;;;17.25;90.93
80116;BME280;69423;47.608;19.366;2023-07-31T02:28:57;98659.53;;;17.25;90.45
80116;BME280;69423;47.608;19.366;2023-07-31T02:29:28;98650.41;;;17.26;90.10
80116;BME280;69423;47.608;19.366;2023-07-31T02:29:59;98656.84;;;17.25;90.49
80116;BME280;69423;47.608;19.366;2023-07-31T02:30:30;98648.75;;;17.25;91.34
80116;BME280;69423;47.608;19.366;2023-07-31T02:31:01;98648.75;;;17.25;90.98
80116;BME280;69423;47.608;19.366;2023-07-31T02:31:32;98650.19;;;17.27;90.80
80116;BME280;69423;47.608;19.366;2023-07-31T02:32:03;98651.81;;;17.28;91.47
80116;BME280;69423;47.608;19.366;2023-07-31T02:32:34;98645.59;;;17.28;91.28
80116;BME280;69423;47.608;19.366;2023-07-31T02:33:05;98651.00;;;17.28;91.41
80116;BME280;69423;47.608;19.366;2023-07-31T02:33:36;98651.59;;;17.30;91.24
80116;BME280;69423;47.608;19.366;2023-07-31T02:34:07;98652.63;;;17.29;90.67
80116;BME280;69423;47.608;19.366;2023-07-31T02:34:38;98652.63;;;17.29;91.37
80116;BME280;69423;47.608;19.366;2023-07-31T02:35:09;98652.63;;;17.29;91.25
80116;BME280;69423;47.608;19.366;2023-07-31T02:35:42;98648.88;;;17.30;91.70
80116;BME280;69423;47.608;19.366;2023-07-31T02:36:13;98655.91;;;17.31;91.51
80116;BME280;69423;47.608;19.366;2023-07-31T02:36:45;98649.47;;;17.32;91.24
80116;BME280;69423;47.608;19.366;2023-07-31T02:37:16;98655.69;;;17.32;91.27
80116;BME280;69423;47.608;19.366;2023-07-31T02:37:47;98659.44;;;17.31;91.10
80116;BME280;69423;47.608;19.366;2023-07-31T02:38:18;98653.78;;;17.33;91.37
80116;BME280;69423;47.608;19.366;2023-07-31T02:38:49;98654.66;;;17.33;90.86
80116;BME280;69423;47.608;19.366;2023-07-31T02:39:20;98658.16;;;17.34;91.35
80116;BME280;69423;47.608;19.366;2023-07-31T02:39:51;98642.56;;;17.36;90.86
80116;BME280;69423;47.608;19.366;2023-07-31T02:40:22;98648.78;;;17.36;90.81
80116;BME280;69423;47.608;19.366;2023-07-31T02:40:54;98653.13;;;17.37;90.68
80116;BME280;69423;47.608;19.366;2023-07-31T02:41:25;98643.97;;;17.38;91.28
80116;BME280;69423;47.608;19.366;2023-07-31T02:41:56;98638.22;;;17.35;91.58
80116;BME280;69423;47.608;19.366;2023-07-31T02:42:27;98638.81;;;17.37;91.31
80116;BME280;69423;47.608;19.366;2023-07-31T02:42:58;98637.75;;;17.38;91.29
80116;BME280;69423;47.608;19.366;2023-07-31T02:43:29;98637.19;;;17.36;90.69
80116;BME280;69423;47.608;19.366;2023-07-31T02:44:00;98640.47;;;17.38;91.46
80116;BME280;69423;47.608;19.366;2023-07-31T02:44:31;98640.47;;;17.38;91.02
80116;BME280;69423;47.608;19.366;2023-07-31T02:45:02;98635.06;;;17.38;91.10
80116;BME280;69423;47.608;19.366;2023-07-31T02:45:33;98640.78;;;17.42;90.85
80116;BME280;69423;47.608;19.366;2023-07-31T02:46:05;98643.75;;;17.40;90.89
80116;BME280;69423;47.608;19.366;2023-07-31T02:46:36;98644.91;;;17.44;90.70
80116;BME280;69423;47.608;19.366;2023-07-31T02:47:07;98637.28;;;17.41;90.60
80116;BME280;69423;47.608;19.366;2023-07-31T02:47:38;98635.16;;;17.43;90.69
80116;BME280;69423;47.608;19.366;2023-07-31T02:48:09;98645.72;;;17.45;91.07
80116;BME280;69423;47.608;19.366;2023-07-31T02:48:40;98636.56;;;17.46;90.43
80116;BME280;69423;47.608;19.366;2023-07-31T02:49:11;98643.25;;;17.43;90.74
80116;BME280;69423;47.608;19.366;2023-07-31T02:49:42;98640.78;;;17.42;90.95
80116;BME280;69423;47.608;19.366;2023-07-31T02:50:13;98643.25;;;17.43;90.88
80116;BME280;69423;47.608;19.366;2023-07-31T02:50:45;98644.31;;;17.42;90.45
80116;BME280;69423;47.608;19.366;2023-07-31T02:51:16;98642.22;;;17.44;90.69
80116;BME280;69423;47.608;19.366;2023-07-31T02:51:47;98650.31;;;17.44;90.33
80116;BME280;69423;47.608;19.366;2023-07-31T02:52:18;98655.22;;;17.35;91.27
80116;BME280;69423;47.608;19.366;2023-07-31T02:52:50;98654.97;;;17.37;90.86
80116;BME280;69423;47.608;19.366;2023-07-31T02:53:21;98656.16;;;17.41;91.41
80116;BME280;69423;47.608;19.366;2023-07-31T02:53:53;98659.19;;;17.33;91.31